ENTK1: Smokey Hill River, Enterprise, KS

Data processed at Sun Apr 30 2017 22:48


All information presented herein is the property of the government of the United States of America and may be revised or deleted at any time without prior notice.
Dissemination of this information without the expressed written consent of the Public Affairs Office, Tulsa District U.S. Army Corps of Engineers is strictly prohibited.
These data are gathered electronically and, as presented, have not undergone any form of quality control. These data are not guaranteed to be valid or correct.
Go to home page.
Go to station list.
Go to station map.


Previous Day
Next Day
Current Day


    
SHEF ID:       ENTK1     SMOKY HILL R AT ENTERPRISE, KS
STATION TYPE:  

               PRECIP     STAGE  RIV-FLOW  BAT-LOAD
                   in        ft       cfs      volt
              Ccp-Rev   Ccp-Rev   Ccp-Rev   Ccp-Rev
(US/Central)
04/30 00:00      0.00      8.27      1260     12.60
04/30 01:00      0.02      8.28      1260     12.60
04/30 02:00      0.00      8.30      1270     12.60
04/30 03:00      0.01      8.30      1270     12.60
04/30 04:00      0.02      8.32      1280     12.60
04/30 05:00      0.01      8.31      1280     12.60
04/30 06:00      0.26      8.36      1300     12.60
04/30 07:00      0.01      8.38      1310     12.60
04/30 08:00      0.00      8.38      1310     12.60
04/30 09:00      0.07      8.41      1320     12.60
04/30 10:00      0.03      8.45      1340     12.71
04/30 11:00      0.00      8.49      1360     13.18
04/30 12:00      0.00      8.51      1370     13.36
04/30 13:00      0.00      8.53      1380     13.48
04/30 14:00      0.00      8.57      1400     13.30
04/30 15:00      0.17      8.69      1460     13.24
04/30 16:00      0.11      8.75      1480     13.48
04/30 17:00      0.01      8.84      1530     13.30
04/30 18:00      0.00      8.97      1590     13.12
04/30 19:00      0.00      9.09      1650     13.00
04/30 20:00      0.02      9.26      1730     12.89
04/30 21:00      0.06      9.45      1830     12.89
04/30 22:00      0.07      9.69      1950     12.89
04/30 23:00      ----      ----      ----      ----